createdAt,value
2018-06-28T00:00:13.661Z,974.87
2018-06-28T00:01:13.654Z,974.88
2018-06-28T00:02:13.661Z,974.82
2018-06-28T00:03:13.652Z,974.87
2018-06-28T00:04:13.640Z,974.83
2018-06-28T00:05:13.646Z,974.84
2018-06-28T00:06:13.647Z,974.87
2018-06-28T00:07:13.634Z,974.81
2018-06-28T00:08:13.636Z,974.79
2018-06-28T00:09:13.620Z,974.86
2018-06-28T00:10:13.616Z,974.86
2018-06-28T00:11:13.615Z,974.85
2018-06-28T00:12:13.608Z,974.81
2018-06-28T00:13:13.606Z,974.77
2018-06-28T00:14:13.603Z,974.78
2018-06-28T00:15:13.598Z,974.77
2018-06-28T00:16:13.601Z,974.81
2018-06-28T00:17:13.589Z,974.81
2018-06-28T00:18:13.590Z,974.80
2018-06-28T00:19:13.581Z,974.78
2018-06-28T00:20:13.576Z,974.76
2018-06-28T00:21:13.640Z,974.75
2018-06-28T00:22:13.569Z,974.77
2018-06-28T00:23:13.575Z,974.76
2018-06-28T00:24:13.562Z,974.73
2018-06-28T00:25:13.561Z,974.68
2018-06-28T00:26:13.560Z,974.73
2018-06-28T00:27:13.559Z,974.67
2018-06-28T00:28:13.544Z,974.69
2018-06-28T00:29:13.543Z,974.65
2018-06-28T00:30:13.541Z,974.66
2018-06-28T00:31:13.542Z,974.73
2018-06-28T00:32:13.529Z,974.70
2018-06-28T00:33:13.523Z,974.71
2018-06-28T00:34:13.528Z,974.69
2018-06-28T00:35:13.527Z,974.70
2018-06-28T00:36:13.515Z,974.67
2018-06-28T00:37:13.507Z,974.76
2018-06-28T00:38:13.507Z,974.73
2018-06-28T00:39:13.505Z,974.76
2018-06-28T00:40:13.495Z,974.76
2018-06-28T00:41:13.500Z,974.75
2018-06-28T00:42:13.487Z,974.72
2018-06-28T00:43:13.492Z,974.73
2018-06-28T00:44:13.479Z,974.69
2018-06-28T00:45:13.474Z,974.69
2018-06-28T00:46:13.471Z,974.67
2018-06-28T00:47:13.471Z,974.73
2018-06-28T00:48:13.470Z,974.67
2018-06-28T00:49:13.467Z,974.73
2018-06-28T00:50:13.452Z,974.70
2018-06-28T00:51:13.455Z,974.68
2018-06-28T00:52:13.446Z,974.66
2018-06-28T00:53:13.446Z,974.66
2018-06-28T00:54:13.438Z,974.67
2018-06-28T00:55:13.443Z,974.62
2018-06-28T00:56:13.443Z,974.63
2018-06-28T00:57:13.423Z,974.66
2018-06-28T00:58:13.428Z,974.69
2018-06-28T00:59:13.415Z,974.72
2018-06-28T01:00:13.417Z,974.65
2018-06-28T01:01:13.420Z,974.68
2018-06-28T01:02:13.412Z,974.67
2018-06-28T01:03:13.404Z,974.70
2018-06-28T01:04:13.400Z,974.63
2018-06-28T01:05:13.403Z,974.59
2018-06-28T01:06:13.388Z,974.60
2018-06-28T01:07:13.402Z,974.54
2018-06-28T01:08:13.382Z,974.56
2018-06-28T01:09:13.374Z,974.55
2018-06-28T01:10:13.372Z,974.50
2018-06-28T01:11:13.366Z,974.46
2018-06-28T01:12:13.372Z,974.48
2018-06-28T01:13:13.359Z,974.54
2018-06-28T01:14:13.353Z,974.47
2018-06-28T01:15:13.358Z,974.46
2018-06-28T01:16:13.344Z,974.50
2018-06-28T01:17:13.340Z,974.44
2018-06-28T01:18:13.336Z,974.44
2018-06-28T01:19:13.345Z,974.47
2018-06-28T01:20:13.341Z,974.44
2018-06-28T01:21:13.324Z,974.45
2018-06-28T01:22:13.326Z,974.44
2018-06-28T01:23:13.323Z,974.46
2018-06-28T01:24:13.324Z,974.44
2018-06-28T01:25:13.322Z,974.43
2018-06-28T01:26:13.307Z,974.44
2018-06-28T01:27:13.310Z,974.45
2018-06-28T01:28:13.291Z,974.44
2018-06-28T01:29:13.301Z,974.45
2018-06-28T01:30:13.283Z,974.43
2018-06-28T01:31:13.278Z,974.40
2018-06-28T01:32:13.276Z,974.40
2018-06-28T01:33:13.269Z,974.43
2018-06-28T01:34:13.267Z,974.38
2018-06-28T01:35:13.265Z,974.39
2018-06-28T01:36:13.257Z,974.35
2018-06-28T01:37:13.250Z,974.35
2018-06-28T01:38:13.256Z,974.38
2018-06-28T01:39:13.248Z,974.46
2018-06-28T01:40:13.240Z,974.37
2018-06-28T01:41:13.232Z,974.39
2018-06-28T01:42:13.228Z,974.41
2018-06-28T01:43:13.230Z,974.37
2018-06-28T01:44:13.218Z,974.48
2018-06-28T01:45:13.215Z,974.41
2018-06-28T01:46:13.214Z,974.40
2018-06-28T01:47:13.205Z,974.35
2018-06-28T01:48:13.201Z,974.48
2018-06-28T01:49:13.203Z,974.37
2018-06-28T01:50:13.192Z,974.33
2018-06-28T01:51:13.191Z,974.35
2018-06-28T01:52:13.189Z,974.26
2018-06-28T01:53:13.185Z,974.27
2018-06-28T01:54:13.173Z,974.33
2018-06-28T01:55:13.175Z,974.32
2018-06-28T01:56:13.161Z,974.26
2018-06-28T01:57:13.162Z,974.24
2018-06-28T01:58:13.153Z,974.34
2018-06-28T01:59:13.156Z,974.24
2018-06-28T02:00:13.141Z,974.26
2018-06-28T02:01:13.140Z,974.27
2018-06-28T02:02:13.136Z,974.31
2018-06-28T02:03:13.128Z,974.16
2018-06-28T02:04:13.121Z,974.20
2018-06-28T02:05:13.116Z,974.14
2018-06-28T02:06:13.116Z,974.15
2018-06-28T02:07:13.114Z,974.20
2018-06-28T02:08:13.102Z,974.13
2018-06-28T02:09:13.098Z,974.21
2018-06-28T02:10:13.098Z,974.32
2018-06-28T02:11:13.096Z,974.25
2018-06-28T02:12:13.082Z,974.28
2018-06-28T02:13:13.078Z,974.20
2018-06-28T02:14:13.080Z,974.15
2018-06-28T02:15:13.073Z,974.24
2018-06-28T02:16:13.064Z,974.17
2018-06-28T02:17:13.067Z,974.24
2018-06-28T02:18:13.053Z,974.19
2018-06-28T02:19:13.062Z,974.24
2018-06-28T02:20:13.047Z,974.15
2018-06-28T02:21:13.041Z,974.12
2018-06-28T02:22:13.038Z,974.12
2018-06-28T02:23:13.032Z,974.08
2018-06-28T02:24:13.021Z,974.27
2018-06-28T02:25:13.020Z,974.19
2018-06-28T02:26:13.012Z,974.08
2018-06-28T02:27:13.016Z,974.18
2018-06-28T02:28:13.001Z,974.15
2018-06-28T02:29:13.004Z,974.07
2018-06-28T02:30:12.991Z,974.08
2018-06-28T02:31:12.987Z,974.05
2018-06-28T02:32:12.979Z,974.07
2018-06-28T02:33:12.974Z,974.05
2018-06-28T02:34:12.971Z,974.04
2018-06-28T02:35:12.963Z,974.10
2018-06-28T02:36:12.958Z,974.17
2018-06-28T02:37:12.960Z,974.08
2018-06-28T02:38:12.949Z,974.07
2018-06-28T02:39:12.948Z,974.09
2018-06-28T02:40:12.938Z,974.08
2018-06-28T02:41:12.933Z,974.08
2018-06-28T02:42:12.928Z,974.06
2018-06-28T02:43:12.931Z,974.01
2018-06-28T02:44:12.926Z,974.01
2018-06-28T02:45:12.912Z,974.12
2018-06-28T02:46:12.915Z,974.01
2018-06-28T02:47:12.906Z,974.02
2018-06-28T02:48:12.896Z,974.07
2018-06-28T02:49:12.898Z,974.06
2018-06-28T02:50:12.898Z,974.06
2018-06-28T02:51:12.886Z,974.07
2018-06-28T02:52:12.875Z,974.00
2018-06-28T02:53:12.867Z,973.96
2018-06-28T02:54:12.866Z,973.99
2018-06-28T02:55:12.859Z,974.00
2018-06-28T02:56:12.856Z,974.05
2018-06-28T02:57:12.860Z,974.02
2018-06-28T02:58:12.846Z,974.00
2018-06-28T02:59:12.838Z,973.92
2018-06-28T03:00:12.842Z,974.06
2018-06-28T03:01:12.826Z,973.97
2018-06-28T03:02:12.830Z,973.97
2018-06-28T03:03:12.825Z,974.05
2018-06-28T03:04:12.810Z,974.04
2018-06-28T03:05:12.805Z,974.04
2018-06-28T03:06:12.800Z,974.09
2018-06-28T03:07:12.796Z,974.00
2018-06-28T03:08:12.793Z,974.00
2018-06-28T03:09:12.791Z,974.00
2018-06-28T03:10:12.822Z,973.99
2018-06-28T03:11:12.787Z,974.02
2018-06-28T03:12:12.779Z,973.94
2018-06-28T03:13:12.764Z,973.93
2018-06-28T03:14:12.760Z,973.96
2018-06-28T03:15:12.761Z,973.98
2018-06-28T03:16:12.753Z,973.94
2018-06-28T03:17:12.743Z,973.96
2018-06-28T03:18:12.746Z,974.07
2018-06-28T03:19:12.731Z,974.03
2018-06-28T03:20:12.734Z,973.98
2018-06-28T03:21:12.732Z,974.00
2018-06-28T03:22:12.717Z,973.99
2018-06-28T03:23:12.715Z,974.02
2018-06-28T03:24:12.714Z,974.05
2018-06-28T03:25:12.709Z,974.07
2018-06-28T03:26:12.702Z,974.07
2018-06-28T03:27:12.690Z,974.04
2018-06-28T03:28:12.689Z,974.01
2018-06-28T03:29:12.679Z,974.00
2018-06-28T03:30:12.676Z,974.01
2018-06-28T03:31:12.670Z,974.04
2018-06-28T03:32:12.671Z,974.02
2018-06-28T03:33:12.664Z,974.01
2018-06-28T03:34:12.654Z,973.99
2018-06-28T03:35:12.650Z,973.97
2018-06-28T03:36:12.649Z,973.92
2018-06-28T03:37:12.643Z,973.92
2018-06-28T03:38:12.633Z,973.92
2018-06-28T03:39:12.627Z,973.92
2018-06-28T03:40:12.622Z,973.93
2018-06-28T03:41:12.619Z,973.93
2018-06-28T03:42:12.619Z,973.97
2018-06-28T03:43:12.607Z,974.03
2018-06-28T03:44:12.616Z,973.99
2018-06-28T03:45:12.596Z,974.02
2018-06-28T03:46:12.593Z,974.01
2018-06-28T03:47:12.587Z,974.00
2018-06-28T03:48:12.585Z,974.03
2018-06-28T03:49:12.577Z,974.00
2018-06-28T03:50:12.573Z,973.99
2018-06-28T03:51:12.565Z,974.00
2018-06-28T03:52:12.561Z,973.98
2018-06-28T03:53:12.565Z,973.97
2018-06-28T03:54:12.560Z,973.96
2018-06-28T03:55:12.547Z,973.95
2018-06-28T03:56:12.543Z,973.91
2018-06-28T03:57:12.535Z,973.93
2018-06-28T03:58:12.531Z,973.93
2018-06-28T03:59:12.539Z,973.91
2018-06-28T04:00:12.519Z,973.97
2018-06-28T04:01:12.515Z,973.92
2018-06-28T04:02:12.512Z,973.89
2018-06-28T04:03:12.519Z,973.86
2018-06-28T04:04:12.501Z,973.84
2018-06-28T04:05:12.500Z,973.89
2018-06-28T04:06:12.490Z,973.86
2018-06-28T04:07:12.491Z,973.87
2018-06-28T04:08:12.494Z,973.94
2018-06-28T04:09:12.480Z,973.93
2018-06-28T04:10:12.471Z,973.90
2018-06-28T04:11:12.465Z,973.84
2018-06-28T04:12:12.464Z,973.85
2018-06-28T04:13:12.454Z,973.81
2018-06-28T04:14:12.457Z,973.81
2018-06-28T04:15:12.449Z,973.81
2018-06-28T04:16:12.438Z,973.81
2018-06-28T04:17:12.443Z,973.83
2018-06-28T04:18:12.443Z,973.82
2018-06-28T04:19:12.430Z,973.80
2018-06-28T04:20:12.426Z,973.85
2018-06-28T04:21:12.414Z,973.94
2018-06-28T04:22:12.416Z,973.94
2018-06-28T04:23:12.409Z,974.01
2018-06-28T04:24:12.399Z,974.08
2018-06-28T04:25:12.398Z,974.08
2018-06-28T04:26:12.388Z,974.11
2018-06-28T04:27:12.387Z,974.10
2018-06-28T04:28:12.387Z,974.11
2018-06-28T04:29:12.427Z,974.11
2018-06-28T04:30:12.383Z,974.15
2018-06-28T04:31:12.373Z,974.17
2018-06-28T04:32:12.375Z,974.20
2018-06-28T04:33:12.432Z,974.22
2018-06-28T04:34:12.369Z,974.25
2018-06-28T04:35:12.368Z,974.23
2018-06-28T04:36:12.372Z,974.30
2018-06-28T04:37:12.375Z,974.30
2018-06-28T04:38:12.373Z,974.29
2018-06-28T04:39:12.372Z,974.26
2018-06-28T04:40:12.362Z,974.24
2018-06-28T04:41:12.368Z,974.26
2018-06-28T04:42:12.373Z,974.23
2018-06-28T04:43:12.374Z,974.23
2018-06-28T04:44:12.368Z,974.26
2018-06-28T04:45:12.368Z,974.28
2018-06-28T04:46:12.372Z,974.23
2018-06-28T04:47:12.373Z,974.22
2018-06-28T04:48:12.384Z,974.23
2018-06-28T04:49:12.382Z,974.19
2018-06-28T04:50:12.394Z,974.17
2018-06-28T04:51:12.387Z,974.14
2018-06-28T04:52:12.389Z,974.24
2018-06-28T04:53:12.401Z,974.21
2018-06-28T04:54:12.411Z,974.15
2018-06-28T04:55:12.405Z,974.20
2018-06-28T04:56:12.408Z,974.17
2018-06-28T04:57:12.415Z,974.29
2018-06-28T04:58:12.415Z,974.21
2018-06-28T04:59:12.418Z,974.20
2018-06-28T05:00:12.422Z,974.23
2018-06-28T05:01:12.445Z,974.20
2018-06-28T05:02:12.437Z,974.23
2018-06-28T05:03:12.436Z,974.24
2018-06-28T05:04:12.447Z,974.20
2018-06-28T05:05:12.446Z,974.20
2018-06-28T05:06:12.453Z,974.24
2018-06-28T05:07:12.467Z,974.19
2018-06-28T05:08:12.464Z,974.22
2018-06-28T05:09:12.476Z,974.16
2018-06-28T05:10:12.478Z,974.21
2018-06-28T05:11:12.489Z,974.17
2018-06-28T05:12:12.485Z,974.17
2018-06-28T05:13:12.501Z,974.17
2018-06-28T05:14:12.500Z,974.10
2018-06-28T05:15:12.514Z,974.15
2018-06-28T05:16:12.510Z,974.07
2018-06-28T05:17:12.587Z,974.08
2018-06-28T05:18:12.521Z,974.03
2018-06-28T05:19:12.530Z,974.12
2018-06-28T05:20:12.531Z,974.05
2018-06-28T05:21:12.544Z,974.06
2018-06-28T05:22:12.539Z,974.01
2018-06-28T05:23:12.549Z,973.99
2018-06-28T05:24:12.548Z,973.97
2018-06-28T05:25:12.550Z,974.03
2018-06-28T05:26:12.555Z,973.94
2018-06-28T05:27:12.568Z,973.95
2018-06-28T05:28:12.569Z,973.93
2018-06-28T05:29:12.598Z,974.03
2018-06-28T05:30:12.565Z,974.03
2018-06-28T05:31:12.569Z,973.96
2018-06-28T05:32:12.579Z,974.00
2018-06-28T05:33:12.571Z,973.97
2018-06-28T05:34:12.573Z,974.05
2018-06-28T05:35:12.579Z,973.95
2018-06-28T05:36:12.583Z,973.93
2018-06-28T05:37:12.575Z,973.92
2018-06-28T05:38:12.577Z,974.00
2018-06-28T05:39:12.576Z,973.99
2018-06-28T05:40:12.577Z,973.96
2018-06-28T05:41:12.590Z,973.99
2018-06-28T05:42:12.581Z,973.96
2018-06-28T05:43:12.576Z,974.02
2018-06-28T05:44:12.578Z,973.89
2018-06-28T05:45:12.609Z,973.95
2018-06-28T05:46:12.583Z,974.01
2018-06-28T05:47:12.632Z,973.90
2018-06-28T05:48:12.578Z,974.02
2018-06-28T05:49:12.583Z,973.93
2018-06-28T05:50:12.586Z,973.99
2018-06-28T05:51:12.575Z,973.95
2018-06-28T05:52:12.574Z,973.98
2018-06-28T05:53:12.588Z,973.98
2018-06-28T05:54:12.620Z,973.95
2018-06-28T05:55:12.580Z,973.95
2018-06-28T05:56:12.568Z,973.97
2018-06-28T05:57:12.571Z,973.95
2018-06-28T05:58:12.566Z,973.97
2018-06-28T05:59:12.567Z,973.99
2018-06-28T06:00:12.567Z,973.97
2018-06-28T06:01:12.563Z,973.98
2018-06-28T06:02:12.562Z,974.00
2018-06-28T06:03:12.569Z,973.97
2018-06-28T06:04:12.565Z,974.02
2018-06-28T06:05:12.563Z,974.17
2018-06-28T06:06:12.557Z,974.12
2018-06-28T06:07:12.563Z,974.00
2018-06-28T06:08:12.557Z,974.05
2018-06-28T06:09:12.554Z,974.07
2018-06-28T06:10:12.592Z,974.10
2018-06-28T06:11:12.547Z,973.95
2018-06-28T06:12:12.550Z,973.92
2018-06-28T06:13:12.544Z,974.06
2018-06-28T06:14:12.567Z,974.01
2018-06-28T06:15:12.540Z,973.98
2018-06-28T06:16:12.547Z,973.94
2018-06-28T06:17:12.548Z,973.92
2018-06-28T06:18:12.538Z,973.93
2018-06-28T06:19:12.543Z,973.95
2018-06-28T06:20:12.544Z,973.94
2018-06-28T06:21:12.539Z,973.90
2018-06-28T06:22:12.529Z,973.95
2018-06-28T06:23:12.524Z,973.97
2018-06-28T06:24:12.526Z,973.89
2018-06-28T06:25:12.524Z,973.94
2018-06-28T06:26:12.528Z,973.98
2018-06-28T06:27:12.519Z,973.89
2018-06-28T06:28:12.519Z,974.03
2018-06-28T06:29:12.522Z,973.97
2018-06-28T06:30:12.517Z,974.03
2018-06-28T06:31:12.513Z,973.96
2018-06-28T06:32:12.506Z,974.05
2018-06-28T06:33:12.504Z,974.01
2018-06-28T06:34:12.509Z,974.03
2018-06-28T06:35:12.506Z,974.01
2018-06-28T06:36:12.545Z,974.02
2018-06-28T06:37:12.497Z,973.87
2018-06-28T06:38:12.500Z,973.86
2018-06-28T06:39:12.500Z,973.81
2018-06-28T06:40:12.490Z,973.82
2018-06-28T06:41:12.496Z,973.90
2018-06-28T06:42:12.494Z,973.98
2018-06-28T06:43:12.484Z,973.85
2018-06-28T06:44:12.482Z,973.91
2018-06-28T06:45:12.481Z,974.01
2018-06-28T06:46:12.490Z,974.15
2018-06-28T06:47:12.483Z,974.02
2018-06-28T06:48:12.482Z,973.96
2018-06-28T06:49:12.471Z,973.92
2018-06-28T06:50:12.477Z,974.01
2018-06-28T06:51:12.466Z,973.91
2018-06-28T06:52:12.469Z,973.97
2018-06-28T06:53:12.469Z,974.09
2018-06-28T06:54:12.460Z,973.86
2018-06-28T06:55:12.467Z,973.90
2018-06-28T06:56:12.459Z,973.92
2018-06-28T06:57:12.450Z,974.39
2018-06-28T06:58:12.449Z,974.06
2018-06-28T06:59:12.447Z,974.01
2018-06-28T07:00:12.445Z,974.22
2018-06-28T07:01:12.453Z,973.94
2018-06-28T07:02:12.447Z,974.02
2018-06-28T07:03:12.439Z,974.00
2018-06-28T07:04:12.443Z,974.12
2018-06-28T07:05:12.441Z,974.02
2018-06-28T07:06:12.436Z,974.01
2018-06-28T07:07:12.429Z,973.82
2018-06-28T07:08:12.438Z,974.00
2018-06-28T07:09:12.437Z,974.00
2018-06-28T07:10:12.434Z,974.00
2018-06-28T07:11:12.424Z,974.17
2018-06-28T07:12:12.416Z,973.92
2018-06-28T07:13:12.423Z,974.01
2018-06-28T07:14:12.418Z,973.98
2018-06-28T07:15:12.423Z,973.95
2018-06-28T07:16:12.406Z,974.22
2018-06-28T07:17:12.404Z,973.94
2018-06-28T07:18:12.406Z,974.07
2018-06-28T07:19:12.401Z,974.09
2018-06-28T07:20:12.396Z,974.10
2018-06-28T07:21:12.395Z,973.88
2018-06-28T07:22:12.391Z,973.87
2018-06-28T07:23:12.389Z,973.85
2018-06-28T07:24:12.388Z,973.98
2018-06-28T07:25:12.388Z,973.86
2018-06-28T07:26:12.391Z,974.06
2018-06-28T07:27:12.380Z,973.93
2018-06-28T07:28:12.379Z,974.15
2018-06-28T07:29:12.377Z,973.94
2018-06-28T07:30:12.378Z,974.08
2018-06-28T07:31:12.373Z,973.99
2018-06-28T07:32:12.367Z,973.83
2018-06-28T07:33:12.421Z,973.86
2018-06-28T07:34:12.502Z,973.96
2018-06-28T07:35:12.363Z,973.85
2018-06-28T07:36:12.360Z,973.88
2018-06-28T07:37:12.371Z,973.83
2018-06-28T07:38:12.447Z,973.96
2018-06-28T07:39:12.352Z,973.88
2018-06-28T07:40:12.354Z,973.95
2018-06-28T07:41:12.349Z,973.91
2018-06-28T07:42:12.348Z,974.04
2018-06-28T07:43:12.344Z,973.96
2018-06-28T07:44:12.342Z,973.93
2018-06-28T07:45:12.347Z,973.94
2018-06-28T07:46:12.347Z,973.84
2018-06-28T07:47:12.338Z,973.94
2018-06-28T07:48:12.334Z,973.83
2018-06-28T07:49:12.345Z,973.94
2018-06-28T07:50:12.333Z,973.83
2018-06-28T07:51:12.332Z,973.82
2018-06-28T07:52:12.327Z,973.77
2018-06-28T07:53:12.332Z,973.82
2018-06-28T07:54:12.322Z,973.79
2018-06-28T07:55:12.325Z,973.76
2018-06-28T07:56:12.326Z,973.65
2018-06-28T07:57:12.315Z,973.87
2018-06-28T07:58:12.322Z,973.74
2018-06-28T07:59:12.312Z,973.83
2018-06-28T08:00:12.310Z,973.90
2018-06-28T08:01:12.306Z,973.77
2018-06-28T08:02:12.316Z,973.81
2018-06-28T08:03:12.308Z,973.93
2018-06-28T08:04:12.305Z,974.04
2018-06-28T08:05:12.299Z,973.73
2018-06-28T08:06:12.298Z,973.96
2018-06-28T08:07:12.304Z,973.81
2018-06-28T08:08:12.294Z,973.96
2018-06-28T08:09:12.307Z,974.15
2018-06-28T08:10:12.502Z,974.03
2018-06-28T08:11:12.291Z,973.93
2018-06-28T08:12:12.293Z,973.83
2018-06-28T08:13:12.284Z,973.81
2018-06-28T08:14:12.285Z,973.79
2018-06-28T08:15:12.284Z,973.81
2018-06-28T08:16:12.278Z,973.73
2018-06-28T08:17:12.276Z,973.73
2018-06-28T08:18:12.273Z,973.77
2018-06-28T08:19:12.271Z,973.81
2018-06-28T08:20:12.269Z,973.80
2018-06-28T08:21:12.271Z,973.65
2018-06-28T08:22:12.266Z,973.80
2018-06-28T08:23:12.268Z,973.92
2018-06-28T08:24:12.277Z,973.86
2018-06-28T08:25:12.265Z,973.76
2018-06-28T08:26:12.279Z,973.61
2018-06-28T08:27:12.257Z,973.80
2018-06-28T08:28:12.295Z,973.69
2018-06-28T08:29:12.254Z,973.81
2018-06-28T08:30:12.261Z,973.76
2018-06-28T08:31:12.252Z,973.82
2018-06-28T08:32:12.249Z,973.88
2018-06-28T08:33:12.258Z,974.05
2018-06-28T08:34:12.254Z,973.98
2018-06-28T08:35:12.245Z,973.94
2018-06-28T08:36:12.299Z,973.93
2018-06-28T08:37:12.245Z,973.83
2018-06-28T08:38:12.239Z,973.88
2018-06-28T08:39:12.238Z,973.94
2018-06-28T08:40:12.236Z,973.75
2018-06-28T08:41:12.241Z,973.78
2018-06-28T08:42:12.237Z,974.01
2018-06-28T08:43:12.253Z,973.80
2018-06-28T08:44:12.232Z,973.76
2018-06-28T08:45:12.230Z,973.79
2018-06-28T08:46:12.235Z,973.79
2018-06-28T08:47:12.230Z,973.75
2018-06-28T08:48:12.230Z,974.08
2018-06-28T08:49:12.224Z,973.78
2018-06-28T08:50:12.234Z,973.83
2018-06-28T08:51:12.222Z,973.76
2018-06-28T08:52:12.218Z,973.63
2018-06-28T08:53:12.232Z,973.62
2018-06-28T08:54:12.219Z,973.76
2018-06-28T08:55:12.216Z,973.75
2018-06-28T08:56:12.214Z,973.75
2018-06-28T08:57:12.215Z,973.55
2018-06-28T08:58:12.246Z,973.76
2018-06-28T08:59:12.212Z,974.02
2018-06-28T09:00:12.208Z,974.17
2018-06-28T09:01:12.221Z,973.86
2018-06-28T09:02:12.221Z,974.00
2018-06-28T09:03:12.212Z,973.91
2018-06-28T09:04:12.214Z,973.98
2018-06-28T09:05:12.209Z,973.79
2018-06-28T09:06:12.203Z,973.74
2018-06-28T09:07:12.203Z,974.20
2018-06-28T09:08:12.203Z,973.85
2018-06-28T09:09:12.198Z,973.94
2018-06-28T09:10:12.203Z,973.91
2018-06-28T09:11:12.200Z,973.95
2018-06-28T09:12:12.205Z,973.81
2018-06-28T09:13:12.203Z,974.03
2018-06-28T09:14:12.194Z,973.78
2018-06-28T09:15:12.258Z,973.89
2018-06-28T09:16:12.196Z,973.70
2018-06-28T09:17:12.200Z,973.97
2018-06-28T09:18:12.198Z,973.76
2018-06-28T09:19:12.201Z,973.72
2018-06-28T09:20:12.189Z,973.90
2018-06-28T09:21:12.188Z,973.77
2018-06-28T09:22:12.186Z,973.70
2018-06-28T09:23:12.198Z,973.63
2018-06-28T09:24:12.194Z,973.69
2018-06-28T09:25:12.183Z,973.64
2018-06-28T09:26:12.184Z,973.76
2018-06-28T09:27:12.183Z,973.76
2018-06-28T09:28:12.182Z,973.85
2018-06-28T09:29:12.188Z,973.66
2018-06-28T09:30:12.179Z,973.66
2018-06-28T09:31:12.184Z,973.85
2018-06-28T09:32:12.181Z,973.78
2018-06-28T09:33:12.177Z,973.61
2018-06-28T09:34:12.189Z,973.70
2018-06-28T09:35:12.177Z,973.81
2018-06-28T09:36:12.175Z,973.83
2018-06-28T09:37:12.182Z,973.83
2018-06-28T09:38:12.189Z,973.68
2018-06-28T09:39:12.185Z,973.88
2018-06-28T09:40:12.176Z,973.83
2018-06-28T09:41:12.177Z,973.70
2018-06-28T09:42:12.171Z,973.71
2018-06-28T09:43:12.170Z,973.78
2018-06-28T09:44:12.169Z,973.61
2018-06-28T09:45:12.169Z,973.44
2018-06-28T09:46:12.172Z,973.62
2018-06-28T09:47:12.166Z,973.54
2018-06-28T09:48:12.166Z,973.68
2018-06-28T09:49:12.167Z,973.62
2018-06-28T09:50:12.169Z,973.83
2018-06-28T09:51:12.163Z,973.83
2018-06-28T09:52:12.166Z,973.75
2018-06-28T09:53:12.161Z,973.80
2018-06-28T09:54:12.169Z,973.82
2018-06-28T09:55:12.159Z,973.91
2018-06-28T09:56:12.159Z,973.69
2018-06-28T09:57:12.169Z,973.72
2018-06-28T09:58:12.169Z,973.77
2018-06-28T09:59:12.158Z,973.85
2018-06-28T10:00:12.168Z,973.58
2018-06-28T10:01:12.164Z,973.58
2018-06-28T10:02:12.157Z,973.68
2018-06-28T10:03:12.160Z,973.80
2018-06-28T10:04:12.152Z,973.71
2018-06-28T10:05:12.150Z,973.68
2018-06-28T10:06:12.163Z,973.55
2018-06-28T10:07:12.153Z,973.67
2018-06-28T10:08:12.153Z,973.77
2018-06-28T10:09:12.154Z,973.66
2018-06-28T10:10:12.144Z,973.74
2018-06-28T10:11:12.144Z,973.60
2018-06-28T10:12:12.141Z,973.67
2018-06-28T10:13:12.270Z,973.64
2018-06-28T10:14:12.150Z,973.86
2018-06-28T10:15:12.153Z,974.01
2018-06-28T10:16:12.137Z,973.93
2018-06-28T10:17:12.149Z,973.77
2018-06-28T10:18:12.319Z,973.90
2018-06-28T10:19:12.138Z,973.71
2018-06-28T10:20:12.144Z,973.78
2018-06-28T10:21:12.148Z,973.84
2018-06-28T10:22:12.140Z,973.67
2018-06-28T10:23:12.141Z,973.87
2018-06-28T10:24:12.129Z,973.57
2018-06-28T10:25:12.133Z,973.62
2018-06-28T10:26:12.136Z,973.75
2018-06-28T10:27:12.127Z,973.62
2018-06-28T10:28:12.129Z,973.49
2018-06-28T10:29:12.125Z,973.60
2018-06-28T10:30:12.124Z,973.77
2018-06-28T10:31:12.129Z,973.40
2018-06-28T10:32:12.120Z,973.78
2018-06-28T10:33:12.123Z,973.66
2018-06-28T10:34:12.118Z,973.37
2018-06-28T10:35:12.125Z,973.46
2018-06-28T10:36:12.118Z,973.41
2018-06-28T10:37:12.114Z,973.84
2018-06-28T10:38:12.124Z,973.68
2018-06-28T10:39:12.116Z,973.64
2018-06-28T10:40:12.116Z,973.53
2018-06-28T10:41:12.119Z,973.76
2018-06-28T10:42:12.115Z,973.57
2018-06-28T10:43:12.110Z,973.52
2018-06-28T10:44:12.110Z,973.46
2018-06-28T10:45:12.106Z,973.46
2018-06-28T10:46:12.106Z,973.37
2018-06-28T10:47:12.110Z,973.45
2018-06-28T10:48:12.103Z,973.41
2018-06-28T10:49:12.108Z,973.57
2018-06-28T10:50:12.107Z,973.54
2018-06-28T10:51:12.102Z,973.48
2018-06-28T10:52:12.101Z,973.42
2018-06-28T10:53:12.100Z,973.88
2018-06-28T10:54:12.098Z,973.62
2018-06-28T10:55:12.097Z,973.61
2018-06-28T10:56:12.105Z,973.65
2018-06-28T10:57:12.097Z,973.85
2018-06-28T10:58:12.097Z,973.63
2018-06-28T10:59:12.095Z,973.47
2018-06-28T11:00:12.097Z,973.63
2018-06-28T11:01:12.097Z,973.67
2018-06-28T11:02:12.091Z,973.73
2018-06-28T11:03:12.100Z,973.80
2018-06-28T11:04:12.093Z,973.63
2018-06-28T11:05:12.097Z,973.58
2018-06-28T11:06:12.093Z,973.72
2018-06-28T11:07:12.088Z,973.54
2018-06-28T11:08:12.086Z,973.54
2018-06-28T11:09:12.110Z,973.46
2018-06-28T11:10:12.093Z,973.97
2018-06-28T11:11:12.091Z,973.70
2018-06-28T11:12:12.081Z,973.70
2018-06-28T11:13:12.081Z,973.88
2018-06-28T11:14:12.086Z,973.87
2018-06-28T11:15:12.079Z,973.85
2018-06-28T11:16:12.078Z,973.65
2018-06-28T11:17:12.079Z,973.67
2018-06-28T11:18:12.085Z,973.86
2018-06-28T11:19:12.089Z,973.70
2018-06-28T11:20:12.077Z,973.78
2018-06-28T11:21:12.074Z,973.77
2018-06-28T11:22:12.076Z,973.78
2018-06-28T11:23:12.074Z,973.63
2018-06-28T11:24:12.080Z,973.62
2018-06-28T11:25:12.081Z,973.83
2018-06-28T11:26:12.077Z,973.57
2018-06-28T11:27:12.076Z,973.75
2018-06-28T11:28:12.085Z,973.58
2018-06-28T11:29:12.073Z,973.57
2018-06-28T11:30:12.071Z,973.74
2018-06-28T11:31:12.070Z,973.64
2018-06-28T11:32:12.068Z,973.63
2018-06-28T11:33:12.073Z,973.69
2018-06-28T11:34:12.194Z,973.69
2018-06-28T11:35:12.082Z,973.65
2018-06-28T11:36:12.098Z,973.70
2018-06-28T11:37:12.067Z,973.52
2018-06-28T11:38:12.076Z,973.73
2018-06-28T11:39:12.073Z,973.74
2018-06-28T11:40:12.079Z,973.61
2018-06-28T11:41:12.068Z,973.55
2018-06-28T11:42:12.076Z,973.75
2018-06-28T11:43:12.067Z,973.74
2018-06-28T11:44:12.143Z,973.68
2018-06-28T11:45:12.068Z,973.77
2018-06-28T11:46:12.074Z,973.68
2018-06-28T11:47:12.073Z,973.72
2018-06-28T11:48:12.077Z,973.82
2018-06-28T11:49:12.081Z,974.28
2018-06-28T11:50:12.076Z,974.16
2018-06-28T11:51:12.070Z,973.97
2018-06-28T11:52:12.094Z,973.73
2018-06-28T11:53:12.070Z,973.69
2018-06-28T11:54:12.076Z,973.71
2018-06-28T11:55:12.069Z,973.61
2018-06-28T11:56:12.071Z,973.51
2018-06-28T11:57:12.070Z,973.45
2018-06-28T11:58:12.069Z,973.49
2018-06-28T11:59:12.071Z,973.52
2018-06-28T12:00:12.074Z,973.45
2018-06-28T12:01:12.070Z,973.38
2018-06-28T12:02:12.078Z,973.54
2018-06-28T12:03:12.074Z,973.87
2018-06-28T12:04:12.086Z,973.67
2018-06-28T12:05:12.100Z,973.73
2018-06-28T12:06:12.075Z,974.07
2018-06-28T12:07:12.087Z,973.69
2018-06-28T12:08:12.076Z,973.91
2018-06-28T12:09:12.081Z,973.70
2018-06-28T12:10:12.084Z,973.85
2018-06-28T12:11:12.091Z,973.82
2018-06-28T12:12:12.075Z,973.60
2018-06-28T12:13:12.076Z,973.75
2018-06-28T12:14:12.084Z,973.71
2018-06-28T12:15:12.079Z,973.77
2018-06-28T12:16:12.076Z,973.87
2018-06-28T12:17:12.076Z,973.82
2018-06-28T12:18:12.077Z,973.54
2018-06-28T12:19:12.085Z,973.71
2018-06-28T12:20:12.076Z,973.87
2018-06-28T12:21:12.088Z,973.71
2018-06-28T12:22:12.079Z,973.72
2018-06-28T12:23:12.090Z,973.76
2018-06-28T12:24:12.075Z,973.92
2018-06-28T12:25:12.080Z,973.78
2018-06-28T12:26:12.077Z,973.79
2018-06-28T12:27:12.075Z,973.70
2018-06-28T12:28:12.082Z,973.58